createdAt,value
2019-05-25T00:02:16.999Z,76.10
2019-05-25T00:04:44.870Z,76.80
2019-05-25T00:07:12.807Z,77.30
2019-05-25T00:09:40.670Z,77.70
2019-05-25T00:12:08.533Z,78.60
2019-05-25T00:14:36.413Z,79.20
2019-05-25T00:17:04.271Z,79.10
2019-05-25T00:19:32.126Z,79.40
2019-05-25T00:21:59.991Z,78.70
2019-05-25T00:24:27.859Z,79.00
2019-05-25T00:26:55.734Z,78.70
2019-05-25T00:29:23.595Z,78.70
2019-05-25T00:31:51.462Z,79.00
2019-05-25T00:34:19.321Z,78.50
2019-05-25T00:36:47.189Z,78.60
2019-05-25T00:39:15.054Z,78.70
2019-05-25T00:41:42.909Z,79.70
2019-05-25T00:44:10.770Z,79.90
2019-05-25T00:46:38.639Z,80.50
2019-05-25T00:49:06.504Z,81.10
2019-05-25T00:51:34.361Z,80.60
2019-05-25T00:54:02.230Z,81.30
2019-05-25T00:56:30.087Z,81.70
2019-05-25T00:58:58.010Z,82.90
2019-05-25T01:01:25.934Z,83.00
2019-05-25T01:03:53.802Z,83.40
2019-05-25T01:06:21.666Z,83.70
2019-05-25T01:08:49.533Z,83.90
2019-05-25T01:11:17.398Z,84.50
2019-05-25T01:13:45.276Z,85.20
2019-05-25T01:16:13.145Z,86.00
2019-05-25T01:18:41.011Z,87.20
2019-05-25T01:21:08.954Z,87.20
2019-05-25T01:23:36.801Z,86.90
2019-05-25T01:26:04.666Z,87.40
2019-05-25T01:28:32.526Z,87.90
2019-05-25T01:31:00.395Z,88.10
2019-05-25T01:33:28.262Z,88.90
2019-05-25T01:35:56.097Z,90.20
2019-05-25T01:38:23.928Z,90.60
2019-05-25T01:40:51.795Z,90.70
2019-05-25T01:43:19.660Z,90.80
2019-05-25T01:45:47.521Z,91.10
2019-05-25T01:48:15.386Z,91.20
2019-05-25T01:50:43.253Z,91.40
2019-05-25T01:53:11.679Z,91.60
2019-05-25T01:55:39.691Z,91.70
2019-05-25T01:58:07.559Z,91.90
2019-05-25T02:00:35.423Z,91.90
2019-05-25T02:03:03.336Z,91.90
2019-05-25T02:05:31.287Z,91.70
2019-05-25T02:07:59.157Z,91.50
2019-05-25T02:10:27.017Z,91.70
2019-05-25T02:12:54.969Z,91.30
2019-05-25T02:15:23.026Z,91.10
2019-05-25T02:17:50.897Z,90.90
2019-05-25T02:20:18.861Z,90.90
2019-05-25T02:22:46.726Z,90.70
2019-05-25T02:25:18.006Z,90.70
2019-05-25T02:27:44.103Z,90.40
2019-05-25T02:30:12.393Z,90.30
2019-05-25T02:32:40.233Z,90.10
2019-05-25T02:35:08.306Z,90.00
2019-05-25T02:37:36.166Z,90.00
2019-05-25T02:40:06.925Z,89.90
2019-05-25T02:42:34.791Z,89.70
2019-05-25T02:45:02.681Z,89.40
2019-05-25T02:47:30.546Z,89.40
2019-05-25T02:49:58.416Z,89.30
2019-05-25T02:52:26.303Z,89.50
2019-05-25T02:54:54.169Z,89.80
2019-05-25T02:57:22.229Z,89.70
2019-05-25T02:59:50.098Z,89.70
2019-05-25T03:02:17.962Z,89.10
2019-05-25T03:04:45.843Z,88.60
2019-05-25T03:07:13.801Z,88.30
2019-05-25T03:09:42.266Z,88.30
2019-05-25T03:12:10.245Z,88.30
2019-05-25T03:14:38.111Z,87.90
2019-05-25T03:17:05.985Z,87.80
2019-05-25T03:19:33.849Z,87.30
2019-05-25T03:22:01.726Z,87.40
2019-05-25T03:24:29.589Z,87.30
2019-05-25T03:26:57.457Z,87.40
2019-05-25T03:29:26.290Z,86.70
2019-05-25T03:31:54.262Z,86.60
2019-05-25T03:34:22.139Z,86.50
2019-05-25T03:36:49.995Z,86.60
2019-05-25T03:39:17.854Z,86.50
2019-05-25T03:41:45.722Z,86.50
2019-05-25T03:44:13.595Z,86.60
2019-05-25T03:46:41.454Z,86.70
2019-05-25T03:49:09.325Z,86.40
2019-05-25T03:51:37.178Z,86.20
2019-05-25T03:54:05.043Z,86.60
2019-05-25T03:56:32.912Z,86.50
2019-05-25T03:59:00.775Z,86.90
2019-05-25T04:01:28.635Z,86.90
2019-05-25T04:03:56.502Z,86.30
2019-05-25T04:06:24.361Z,86.20
2019-05-25T04:08:52.237Z,86.60
2019-05-25T04:11:20.103Z,86.80
2019-05-25T04:13:48.031Z,86.80
2019-05-25T04:16:15.849Z,86.60
2019-05-25T04:18:43.722Z,88.50
2019-05-25T04:21:11.590Z,88.70
2019-05-25T04:23:39.510Z,88.90
2019-05-25T04:26:21.435Z,88.70
2019-05-25T04:28:36.892Z,89.20
2019-05-25T04:31:04.774Z,89.60
2019-05-25T04:33:32.638Z,88.20
2019-05-25T04:36:00.508Z,87.90
2019-05-25T04:38:28.373Z,88.20
2019-05-25T04:40:56.242Z,88.00
2019-05-25T04:43:24.103Z,89.10
2019-05-25T04:45:51.977Z,88.30
2019-05-25T04:48:19.847Z,89.50
2019-05-25T04:50:47.735Z,88.90
2019-05-25T04:53:15.582Z,89.60
2019-05-25T04:55:43.450Z,90.40
2019-05-25T04:58:11.311Z,91.40
2019-05-25T05:00:39.174Z,91.90
2019-05-25T05:03:07.038Z,92.50
2019-05-25T05:05:34.898Z,92.80
2019-05-25T05:08:02.767Z,92.90
2019-05-25T05:10:30.630Z,92.40
2019-05-25T05:12:58.494Z,92.50
2019-05-25T05:15:26.357Z,93.00
2019-05-25T05:17:54.244Z,93.60
2019-05-25T05:20:22.201Z,93.50
2019-05-25T05:22:50.074Z,94.20
2019-05-25T05:25:17.930Z,94.30
2019-05-25T05:27:45.794Z,94.30
2019-05-25T05:30:13.663Z,94.40
2019-05-25T05:32:41.529Z,94.80
2019-05-25T05:35:09.657Z,94.70
2019-05-25T05:37:37.523Z,94.70
2019-05-25T05:40:06.785Z,94.90
2019-05-25T05:42:35.647Z,94.50
2019-05-25T05:45:03.817Z,94.10
2019-05-25T05:47:33.145Z,94.00
2019-05-25T05:50:02.617Z,95.00
2019-05-25T05:52:31.945Z,94.60
2019-05-25T05:55:01.291Z,94.80
2019-05-25T05:57:29.146Z,94.20
2019-05-25T05:59:57.083Z,94.00
2019-05-25T06:02:25.012Z,93.70
2019-05-25T06:04:52.826Z,93.80
2019-05-25T06:07:20.971Z,93.90
2019-05-25T06:09:48.821Z,94.10
2019-05-25T06:12:16.690Z,93.80
2019-05-25T06:14:44.557Z,94.00
2019-05-25T06:17:12.426Z,93.50
2019-05-25T06:19:40.298Z,93.40
2019-05-25T06:22:08.157Z,93.70
2019-05-25T06:24:36.043Z,93.30
2019-05-25T06:27:04.111Z,92.50
2019-05-25T06:29:31.977Z,92.80
2019-05-25T06:31:59.839Z,92.80
2019-05-25T06:34:27.706Z,92.60
2019-05-25T06:36:55.575Z,92.20
2019-05-25T06:39:23.443Z,92.30
2019-05-25T06:41:51.326Z,92.00
2019-05-25T06:44:19.188Z,92.00
2019-05-25T06:46:47.090Z,91.50
2019-05-25T06:49:14.951Z,91.80
2019-05-25T06:51:42.781Z,91.70
2019-05-25T06:54:10.661Z,91.20
2019-05-25T06:56:38.519Z,91.10
2019-05-25T06:59:06.424Z,90.60
2019-05-25T07:01:34.334Z,90.40
2019-05-25T07:04:02.193Z,89.30
2019-05-25T07:06:30.029Z,90.60
2019-05-25T07:08:57.905Z,87.20
2019-05-25T07:11:25.767Z,86.70
2019-05-25T07:16:32.869Z,83.90
2019-05-25T07:19:00.726Z,84.70
2019-05-25T07:21:28.674Z,85.70
2019-05-25T07:23:56.558Z,84.30
2019-05-25T07:26:24.426Z,83.20
2019-05-25T07:28:52.290Z,83.90
2019-05-25T07:31:20.231Z,83.30
2019-05-25T07:33:48.097Z,82.80
2019-05-25T07:36:15.986Z,82.90
2019-05-25T07:38:43.854Z,84.30
2019-05-25T07:41:11.734Z,84.60
2019-05-25T07:43:39.641Z,85.20
2019-05-25T07:46:07.518Z,84.40
2019-05-25T07:48:35.408Z,83.30
2019-05-25T07:51:03.307Z,82.70
2019-05-25T07:53:31.137Z,82.00
2019-05-25T07:55:59.003Z,83.00
2019-05-25T07:58:26.878Z,81.90
2019-05-25T08:00:54.743Z,82.00
2019-05-25T08:03:22.614Z,80.20
2019-05-25T08:05:50.482Z,80.20
2019-05-25T08:08:18.360Z,79.60
2019-05-25T08:10:46.222Z,78.10
2019-05-25T08:13:14.097Z,77.90
2019-05-25T08:15:41.962Z,78.30
2019-05-25T08:18:09.866Z,77.30
2019-05-25T08:20:37.734Z,76.10
2019-05-25T08:23:05.605Z,77.30
2019-05-25T08:25:33.457Z,77.90
2019-05-25T08:28:01.338Z,79.70
2019-05-25T08:30:29.199Z,78.70
2019-05-25T08:32:57.073Z,79.00
2019-05-25T08:35:24.946Z,78.10
2019-05-25T08:37:52.811Z,77.40
2019-05-25T08:40:20.678Z,77.70
2019-05-25T08:42:48.544Z,76.80
2019-05-25T08:45:16.412Z,77.20
2019-05-25T08:47:44.270Z,76.70
2019-05-25T08:50:12.343Z,75.90
2019-05-25T08:52:40.207Z,74.40
2019-05-25T08:55:08.275Z,73.50
2019-05-25T08:57:36.131Z,72.00
2019-05-25T09:00:05.079Z,73.00
2019-05-25T09:02:32.946Z,73.70
2019-05-25T09:05:00.815Z,70.20
2019-05-25T09:07:28.698Z,70.20
2019-05-25T09:09:56.561Z,71.20
2019-05-25T09:12:24.426Z,73.60
2019-05-25T09:14:52.297Z,75.80
2019-05-25T09:17:20.178Z,76.10
2019-05-25T09:19:48.035Z,76.60
2019-05-25T09:22:15.901Z,74.20
2019-05-25T09:24:43.798Z,74.90
2019-05-25T09:27:11.673Z,74.70
2019-05-25T09:29:39.542Z,73.00
2019-05-25T09:32:07.424Z,71.90
2019-05-25T09:34:35.281Z,71.30
2019-05-25T09:37:03.151Z,70.10
2019-05-25T09:39:31.022Z,69.70
2019-05-25T09:41:58.888Z,68.50
2019-05-25T09:44:26.755Z,67.60
2019-05-25T09:46:54.617Z,66.10
2019-05-25T09:49:22.499Z,63.20
2019-05-25T09:51:50.371Z,63.80
2019-05-25T09:54:18.239Z,65.80
2019-05-25T09:56:46.098Z,64.20
2019-05-25T09:59:19.974Z,63.90
2019-05-25T10:01:43.559Z,63.10
2019-05-25T10:04:11.435Z,62.10
2019-05-25T10:06:39.295Z,60.30
2019-05-25T10:09:07.426Z,57.90
2019-05-25T10:11:35.294Z,57.40
2019-05-25T10:14:03.188Z,57.70
2019-05-25T10:16:31.040Z,58.10
2019-05-25T10:18:58.904Z,57.90
2019-05-25T10:21:26.776Z,58.10
2019-05-25T10:23:54.641Z,57.90
2019-05-25T10:26:23.164Z,58.80
2019-05-25T10:28:51.171Z,58.10
2019-05-25T10:31:19.056Z,58.60
2019-05-25T10:33:46.917Z,58.40
2019-05-25T10:36:14.819Z,57.20
2019-05-25T10:38:42.722Z,55.20
2019-05-25T10:41:10.586Z,54.00
2019-05-25T10:43:38.450Z,51.90
2019-05-25T10:46:06.452Z,51.90
2019-05-25T10:48:34.289Z,53.60
2019-05-25T10:51:02.163Z,54.10
2019-05-25T10:53:30.025Z,55.10
2019-05-25T10:55:57.891Z,54.30
2019-05-25T10:58:25.754Z,54.50
2019-05-25T11:00:53.626Z,53.90
2019-05-25T11:03:21.499Z,52.30
2019-05-25T11:05:49.361Z,52.20
2019-05-25T11:08:17.236Z,52.20
2019-05-25T11:10:45.107Z,52.00
2019-05-25T11:13:12.965Z,51.50
2019-05-25T11:15:40.857Z,51.80
2019-05-25T11:18:08.725Z,51.90
2019-05-25T11:20:36.585Z,52.30
2019-05-25T11:23:04.459Z,52.60
2019-05-25T11:25:32.326Z,51.90
2019-05-25T11:28:00.190Z,52.10
2019-05-25T11:30:47.315Z,50.00
2019-05-25T11:33:15.185Z,51.30
2019-05-25T11:35:43.956Z,51.20
2019-05-25T11:38:11.919Z,51.10
2019-05-25T11:40:39.796Z,50.70
2019-05-25T11:43:07.654Z,50.50
2019-05-25T11:45:35.529Z,50.70
2019-05-25T11:48:03.402Z,50.90
2019-05-25T11:50:31.262Z,51.20
2019-05-25T11:52:59.132Z,50.80
2019-05-25T11:55:26.995Z,50.70
2019-05-25T11:57:54.854Z,50.10
2019-05-25T12:00:25.359Z,48.80
2019-05-25T12:02:52.545Z,50.00
2019-05-25T12:05:20.512Z,50.70
2019-05-25T12:07:48.379Z,51.20
2019-05-25T12:10:16.626Z,51.20
2019-05-25T12:13:11.083Z,51.50
2019-05-25T12:15:38.953Z,51.10
2019-05-25T12:18:06.819Z,49.90
2019-05-25T12:20:34.704Z,49.20
2019-05-25T12:23:03.117Z,49.80
2019-05-25T12:25:31.423Z,49.90
2019-05-25T12:27:59.294Z,48.40
2019-05-25T12:30:39.616Z,48.10
2019-05-25T12:32:56.955Z,48.50
2019-05-25T12:35:24.833Z,49.20
2019-05-25T12:37:52.696Z,49.10
2019-05-25T12:40:20.554Z,48.30
2019-05-25T12:42:48.435Z,48.20
2019-05-25T12:45:16.302Z,47.70
2019-05-25T12:47:44.162Z,47.60
2019-05-25T12:50:13.192Z,48.00
2019-05-25T12:52:41.129Z,48.00
2019-05-25T12:55:09.092Z,49.10
2019-05-25T12:57:36.962Z,49.60
2019-05-25T13:00:15.075Z,49.70
2019-05-25T13:02:35.033Z,49.20
2019-05-25T13:05:02.906Z,49.90
2019-05-25T13:07:30.770Z,50.40
2019-05-25T13:09:58.647Z,50.00
2019-05-25T13:12:26.510Z,49.60
2019-05-25T13:14:54.396Z,49.90
2019-05-25T13:17:22.250Z,48.00
2019-05-25T13:19:50.123Z,48.70
2019-05-25T13:22:17.993Z,49.50
2019-05-25T13:24:45.893Z,49.90
2019-05-25T13:27:13.742Z,48.80
2019-05-25T13:29:41.618Z,48.80
2019-05-25T13:32:09.489Z,47.70
2019-05-25T13:34:37.368Z,48.80
2019-05-25T13:37:05.258Z,48.90
2019-05-25T13:39:33.135Z,49.80
2019-05-25T13:42:01.002Z,50.60
2019-05-25T13:44:28.871Z,50.20
2019-05-25T13:46:56.750Z,50.80
2019-05-25T13:49:24.621Z,50.70
2019-05-25T13:51:52.482Z,50.40
2019-05-25T13:54:20.347Z,50.80
2019-05-25T13:56:48.278Z,51.30
2019-05-25T13:59:16.185Z,51.00
2019-05-25T14:01:44.057Z,51.80
2019-05-25T14:04:11.922Z,53.30
2019-05-25T14:06:39.846Z,52.90
2019-05-25T14:09:07.650Z,52.00
2019-05-25T14:11:35.626Z,52.00
2019-05-25T14:14:03.494Z,52.40
2019-05-25T14:16:31.362Z,52.40
2019-05-25T14:18:59.227Z,52.70
2019-05-25T14:21:27.091Z,53.60
2019-05-25T14:23:54.957Z,54.30
2019-05-25T14:26:22.827Z,54.10
2019-05-25T14:28:50.706Z,53.80
2019-05-25T14:31:18.561Z,52.10
2019-05-25T14:33:46.526Z,52.70
2019-05-25T14:36:14.511Z,52.60
2019-05-25T14:38:42.383Z,52.80
2019-05-25T14:41:10.242Z,53.50
2019-05-25T14:43:38.110Z,53.50
2019-05-25T14:46:05.975Z,53.60
2019-05-25T14:48:33.846Z,54.40
2019-05-25T14:51:01.720Z,54.40
2019-05-25T14:53:29.583Z,54.60
2019-05-25T14:55:57.536Z,53.90
2019-05-25T14:58:25.398Z,54.00
2019-05-25T15:00:53.270Z,54.20
2019-05-25T15:03:21.137Z,54.80
2019-05-25T15:05:49.016Z,56.30
2019-05-25T15:08:16.887Z,56.20
2019-05-25T15:10:44.751Z,56.10
2019-05-25T15:13:12.618Z,56.50
2019-05-25T15:15:40.490Z,56.30
2019-05-25T15:18:08.362Z,57.10
2019-05-25T15:20:36.231Z,57.30
2019-05-25T15:23:04.125Z,57.30
2019-05-25T15:25:31.978Z,57.20
2019-05-25T15:27:59.853Z,57.40
2019-05-25T15:30:27.713Z,57.10
2019-05-25T15:32:55.583Z,57.20
2019-05-25T15:35:23.450Z,57.30
2019-05-25T15:37:51.328Z,57.40
2019-05-25T15:40:19.307Z,57.50
2019-05-25T15:42:47.170Z,57.80
2019-05-25T15:45:15.035Z,57.90
2019-05-25T15:47:42.907Z,58.20
2019-05-25T15:50:11.481Z,58.50
2019-05-25T15:52:39.350Z,58.50
2019-05-25T15:55:08.214Z,58.40
2019-05-25T15:57:36.088Z,58.50
2019-05-25T16:00:11.279Z,58.90
2019-05-25T16:02:39.139Z,60.50
2019-05-25T16:05:07.212Z,60.10
2019-05-25T16:07:37.782Z,59.90
2019-05-25T16:10:06.828Z,58.90
2019-05-25T16:12:37.627Z,58.00
2019-05-25T16:15:06.403Z,58.00
2019-05-25T16:17:34.275Z,58.40
2019-05-25T16:20:02.131Z,59.20
2019-05-25T16:22:30.295Z,59.20
2019-05-25T16:24:58.159Z,59.10
2019-05-25T16:27:26.023Z,59.60
2019-05-25T16:29:53.890Z,60.10
2019-05-25T16:32:21.759Z,60.60
2019-05-25T16:34:49.636Z,60.70
2019-05-25T16:37:17.711Z,60.60
2019-05-25T16:39:45.775Z,60.60
2019-05-25T16:42:13.647Z,60.70
2019-05-25T16:44:41.503Z,60.50
2019-05-25T16:47:09.380Z,60.80
2019-05-25T16:49:37.283Z,59.60
2019-05-25T16:52:05.150Z,59.40
2019-05-25T16:54:33.016Z,58.70
2019-05-25T16:57:00.883Z,59.50
2019-05-25T16:59:28.767Z,60.10
2019-05-25T17:01:56.633Z,61.10
2019-05-25T17:04:24.502Z,60.10
2019-05-25T17:06:52.367Z,60.60
2019-05-25T17:09:20.234Z,61.30
2019-05-25T17:11:48.101Z,62.10
2019-05-25T17:14:15.970Z,62.80
2019-05-25T17:16:43.843Z,63.20
2019-05-25T17:19:11.715Z,63.60
2019-05-25T17:21:39.582Z,64.30
2019-05-25T17:24:07.452Z,64.80
2019-05-25T17:26:35.324Z,65.90
2019-05-25T17:29:03.182Z,66.70
2019-05-25T17:31:31.045Z,67.10
2019-05-25T17:33:58.920Z,67.70
2019-05-25T17:36:26.777Z,67.90
2019-05-25T17:38:54.653Z,68.40
2019-05-25T17:41:22.515Z,69.10
2019-05-25T17:43:50.390Z,69.90
2019-05-25T17:46:18.256Z,70.20
2019-05-25T17:48:46.134Z,70.30
2019-05-25T17:51:14.089Z,70.80
2019-05-25T17:53:42.088Z,71.40
2019-05-25T17:56:09.965Z,71.80
2019-05-25T17:58:37.927Z,72.30
2019-05-25T18:01:05.797Z,72.80
2019-05-25T18:03:33.660Z,73.80
2019-05-25T18:06:01.527Z,74.80
2019-05-25T18:08:29.391Z,75.40
2019-05-25T18:10:57.261Z,76.10
2019-05-25T18:13:28.681Z,76.10
2019-05-25T18:15:54.655Z,76.00
2019-05-25T18:18:22.523Z,76.10
2019-05-25T18:20:50.616Z,76.90
2019-05-25T18:23:18.809Z,76.40
2019-05-25T18:25:46.709Z,76.70
2019-05-25T18:28:14.702Z,76.80
2019-05-25T18:30:42.564Z,76.70
2019-05-25T18:33:10.526Z,76.70
2019-05-25T18:35:38.394Z,76.50
2019-05-25T18:38:06.261Z,76.20
2019-05-25T18:40:34.126Z,76.10
2019-05-25T18:43:02.009Z,76.40
2019-05-25T18:45:29.879Z,76.40
2019-05-25T18:47:57.742Z,76.60
2019-05-25T18:50:25.727Z,76.70
2019-05-25T18:52:53.624Z,76.30
2019-05-25T18:55:21.587Z,76.20
2019-05-25T18:57:49.451Z,76.10
2019-05-25T19:00:17.897Z,75.80
2019-05-25T19:02:45.832Z,75.80
2019-05-25T19:05:13.726Z,75.50
2019-05-25T19:07:41.567Z,76.00
2019-05-25T19:10:09.531Z,77.00
2019-05-25T19:12:37.398Z,77.30
2019-05-25T19:15:11.190Z,76.90
2019-05-25T19:17:39.089Z,77.00
2019-05-25T19:20:07.218Z,77.10
2019-05-25T19:22:35.052Z,76.70
2019-05-25T19:27:54.000Z,75.80
2019-05-25T19:30:22.073Z,76.00
2019-05-25T19:35:26.144Z,75.70
2019-05-25T19:37:54.003Z,75.50
2019-05-25T19:40:21.875Z,74.50
2019-05-25T19:42:50.296Z,73.20
2019-05-25T19:45:18.493Z,72.90
2019-05-25T19:47:46.378Z,73.90
2019-05-25T19:50:14.436Z,73.80
2019-05-25T19:52:42.303Z,72.60
2019-05-25T19:55:10.462Z,71.60
2019-05-25T19:57:38.331Z,72.30
2019-05-25T20:00:06.795Z,72.40
2019-05-25T20:02:34.668Z,72.30
2019-05-25T20:05:15.660Z,72.80
2019-05-25T20:07:32.650Z,72.40
2019-05-25T20:10:00.522Z,72.60
2019-05-25T20:12:28.386Z,72.40
2019-05-25T20:14:56.264Z,72.80
2019-05-25T20:17:24.118Z,72.60
2019-05-25T20:19:51.985Z,72.80
2019-05-25T20:22:19.847Z,72.80
2019-05-25T20:24:47.726Z,72.80
2019-05-25T20:27:15.598Z,72.90
2019-05-25T20:29:43.461Z,73.10
2019-05-25T20:32:11.327Z,73.50
2019-05-25T20:34:39.194Z,73.80
2019-05-25T20:37:07.161Z,74.10
2019-05-25T20:39:35.035Z,74.30
2019-05-25T20:42:02.901Z,74.50
2019-05-25T20:44:30.784Z,74.60
2019-05-25T20:46:58.642Z,74.80
2019-05-25T20:49:26.505Z,75.10
2019-05-25T20:51:54.375Z,75.20
2019-05-25T20:54:22.237Z,75.10
2019-05-25T20:56:50.111Z,75.60
2019-05-25T20:59:17.986Z,76.10
2019-05-25T21:01:45.864Z,76.30
2019-05-25T21:04:13.721Z,76.50
2019-05-25T21:06:41.588Z,76.80
2019-05-25T21:09:09.448Z,77.40
2019-05-25T21:11:37.316Z,78.10
2019-05-25T21:14:05.179Z,78.90
2019-05-25T21:16:33.051Z,79.40
2019-05-25T21:19:02.960Z,79.80
2019-05-25T21:21:30.435Z,80.00
2019-05-25T21:23:58.293Z,80.30
2019-05-25T21:26:26.163Z,80.50
2019-05-25T21:28:54.023Z,80.80
2019-05-25T21:31:23.994Z,81.10
2019-05-25T21:33:51.401Z,81.30
2019-05-25T21:36:19.270Z,81.60
2019-05-25T21:38:47.132Z,81.90
2019-05-25T21:41:15.011Z,82.20
2019-05-25T21:43:42.910Z,82.40
2019-05-25T21:46:10.738Z,82.90
2019-05-25T21:48:38.605Z,83.10
2019-05-25T21:51:06.472Z,83.50
2019-05-25T21:53:34.333Z,83.70
2019-05-25T21:56:02.207Z,84.00
2019-05-25T21:58:30.078Z,84.20
2019-05-25T22:00:58.010Z,84.60
2019-05-25T22:03:25.883Z,84.90
2019-05-25T22:05:53.745Z,85.10
2019-05-25T22:08:21.618Z,85.40
2019-05-25T22:10:49.483Z,85.10
2019-05-25T22:13:27.853Z,85.40
2019-05-25T22:15:46.863Z,85.90
2019-05-25T22:18:19.556Z,86.10
2019-05-25T22:20:47.810Z,86.20
2019-05-25T22:23:15.739Z,86.60
2019-05-25T22:25:43.550Z,86.60
2019-05-25T22:28:11.418Z,86.40
2019-05-25T22:30:39.287Z,86.60
2019-05-25T22:33:07.150Z,86.80
2019-05-25T22:35:35.117Z,87.10
2019-05-25T22:38:02.980Z,87.50
2019-05-25T22:40:30.873Z,87.30
2019-05-25T22:42:58.733Z,87.40
2019-05-25T22:45:26.605Z,87.40
2019-05-25T22:47:54.473Z,88.00
2019-05-25T22:50:22.335Z,88.20
2019-05-25T22:52:50.210Z,88.40
2019-05-25T22:55:18.081Z,88.60
2019-05-25T22:57:45.941Z,88.50
2019-05-25T23:00:14.388Z,88.60
2019-05-25T23:02:42.395Z,89.10
2019-05-25T23:07:37.786Z,89.00
2019-05-25T23:10:08.611Z,89.60
2019-05-25T23:12:36.477Z,90.00
